createdAt,value
2023-01-09T00:01:23.961Z,-0.46
2023-01-09T00:02:56.182Z,-0.55
2023-01-09T00:04:28.180Z,-0.50
2023-01-09T00:07:31.953Z,-0.50
2023-01-09T00:09:04.104Z,-0.58
2023-01-09T00:10:39.300Z,-0.58
2023-01-09T00:12:11.331Z,-0.63
2023-01-09T00:13:43.519Z,-0.66
2023-01-09T00:15:15.832Z,-0.63
2023-01-09T00:16:48.010Z,-0.62
2023-01-09T00:18:20.007Z,-0.65
2023-01-09T00:19:52.294Z,-0.64
2023-01-09T00:21:24.456Z,-0.63
2023-01-09T00:22:56.561Z,-0.64
2023-01-09T00:24:28.719Z,-0.65
2023-01-09T00:26:09.658Z,-0.72
2023-01-09T00:27:41.854Z,-0.82
2023-01-09T00:29:14.054Z,-0.86
2023-01-09T00:30:46.149Z,-0.96
2023-01-09T00:32:18.333Z,-0.98
2023-01-09T00:33:59.836Z,-0.92
2023-01-09T00:37:04.417Z,-0.97
2023-01-09T00:38:37.828Z,-0.94
2023-01-09T00:40:11.034Z,-0.92
2023-01-09T00:41:46.805Z,-0.87
2023-01-09T00:43:20.370Z,-0.86
2023-01-09T00:44:53.841Z,-0.79
2023-01-09T00:46:28.151Z,-0.86
2023-01-09T00:48:09.280Z,-0.90
2023-01-09T00:49:41.641Z,-0.93
2023-01-09T00:51:13.925Z,-0.93
2023-01-09T00:52:46.790Z,-0.89
2023-01-09T00:54:19.730Z,-0.92
2023-01-09T00:55:52.211Z,-1.01
2023-01-09T00:57:24.127Z,-1.09
2023-01-09T00:58:56.296Z,-1.11
2023-01-09T01:00:28.332Z,-1.14
2023-01-09T01:02:00.672Z,-1.06
2023-01-09T01:03:32.827Z,-1.04
2023-01-09T01:05:24.284Z,-1.00
2023-01-09T01:07:15.177Z,-1.02
2023-01-09T01:08:47.316Z,-1.05
2023-01-09T01:10:23.341Z,-1.05
2023-01-09T01:11:55.338Z,-1.08
2023-01-09T01:13:27.351Z,-1.06
2023-01-09T01:15:00.589Z,-1.04
2023-01-09T01:16:33.061Z,-1.08
2023-01-09T01:18:05.287Z,-1.08
2023-01-09T01:19:38.647Z,-1.12
2023-01-09T01:21:12.631Z,-1.06
2023-01-09T01:22:44.682Z,-1.06
2023-01-09T01:24:20.075Z,-1.10
2023-01-09T01:25:52.244Z,-1.10
2023-01-09T01:27:24.270Z,-1.13
2023-01-09T01:28:56.290Z,-1.13
2023-01-09T01:30:28.348Z,-1.14
2023-01-09T01:32:00.411Z,-1.11
2023-01-09T01:33:35.175Z,-1.07
2023-01-09T01:35:08.321Z,-1.05
2023-01-09T01:36:40.386Z,-1.06
2023-01-09T01:38:12.342Z,-1.07
2023-01-09T01:39:44.375Z,-1.08
2023-01-09T01:41:29.751Z,-1.10
2023-01-09T01:43:02.118Z,-1.06
2023-01-09T01:45:09.765Z,-0.95
2023-01-09T01:46:41.729Z,-0.97
2023-01-09T01:48:17.754Z,-0.96
2023-01-09T01:49:50.085Z,-0.99
2023-01-09T01:51:24.451Z,-1.02
2023-01-09T01:53:35.122Z,-1.10
2023-01-09T01:55:09.643Z,-1.18
2023-01-09T01:56:51.337Z,-1.19
2023-01-09T01:58:23.296Z,-1.27
2023-01-09T01:59:57.845Z,-1.28
2023-01-09T02:01:30.320Z,-1.31
2023-01-09T02:03:03.166Z,-1.28
2023-01-09T02:04:37.195Z,-1.24
2023-01-09T02:06:10.638Z,-1.24
2023-01-09T02:07:42.655Z,-1.26
2023-01-09T02:09:16.219Z,-1.26
2023-01-09T02:10:48.069Z,-1.20
2023-01-09T02:12:26.742Z,-1.22
2023-01-09T02:13:59.678Z,-1.24
2023-01-09T02:15:55.095Z,-1.19
2023-01-09T02:17:41.109Z,-1.23
2023-01-09T02:19:25.284Z,-1.26
2023-01-09T02:21:21.782Z,-1.34
2023-01-09T02:22:56.889Z,-1.37
2023-01-09T02:24:42.968Z,-1.38
2023-01-09T02:26:42.518Z,-1.35
2023-01-09T02:28:48.520Z,-1.34
2023-01-09T02:30:36.919Z,-1.35
2023-01-09T02:32:08.925Z,-1.40
2023-01-09T02:34:05.297Z,-1.36
2023-01-09T02:35:47.319Z,-1.40
2023-01-09T02:37:37.779Z,-1.42
2023-01-09T02:39:25.437Z,-1.48
2023-01-09T02:41:26.041Z,-1.47
2023-01-09T02:42:59.681Z,-1.53
2023-01-09T02:44:32.867Z,-1.50
2023-01-09T02:46:04.986Z,-1.59
2023-01-09T02:47:39.754Z,-1.61
2023-01-09T02:49:12.596Z,-1.67
2023-01-09T02:50:50.680Z,-1.63
2023-01-09T02:52:28.271Z,-1.63
2023-01-09T02:54:05.095Z,-1.66
2023-01-09T02:56:24.495Z,-1.67
2023-01-09T02:58:05.146Z,-1.75
2023-01-09T03:00:14.588Z,-1.71
2023-01-09T03:02:16.891Z,-1.69
2023-01-09T03:04:39.999Z,-1.69
2023-01-09T03:06:20.509Z,-1.70
2023-01-09T03:08:00.205Z,-1.71
2023-01-09T03:11:06.987Z,-1.73
2023-01-09T03:12:40.771Z,-1.74
2023-01-09T03:14:16.205Z,-1.70
2023-01-09T03:15:50.985Z,-1.65
2023-01-09T03:17:32.849Z,-1.62
2023-01-09T03:19:08.541Z,-1.66
2023-01-09T03:20:41.460Z,-1.66
2023-01-09T03:22:13.485Z,-1.70
2023-01-09T03:23:52.794Z,-1.66
2023-01-09T03:25:26.073Z,-1.67
2023-01-09T03:26:58.160Z,-1.68
2023-01-09T03:28:30.273Z,-1.70
2023-01-09T03:30:02.384Z,-1.66
2023-01-09T03:31:34.477Z,-1.63
2023-01-09T03:33:06.475Z,-1.62
2023-01-09T03:34:38.547Z,-1.61
2023-01-09T03:36:12.245Z,-1.61
2023-01-09T03:37:44.273Z,-1.62
2023-01-09T03:39:16.232Z,-1.61
2023-01-09T03:40:48.311Z,-1.63
2023-01-09T03:42:20.289Z,-1.61
2023-01-09T03:43:52.359Z,-1.58
2023-01-09T03:45:24.339Z,-1.61
2023-01-09T03:46:56.358Z,-1.65
2023-01-09T03:48:28.838Z,-1.72
2023-01-09T03:50:00.940Z,-1.79
2023-01-09T03:51:32.875Z,-1.80
2023-01-09T03:53:05.098Z,-1.85
2023-01-09T03:54:37.186Z,-1.87
2023-01-09T03:56:09.298Z,-1.90
2023-01-09T03:57:41.353Z,-1.92
2023-01-09T03:59:13.398Z,-1.92
2023-01-09T04:00:46.449Z,-1.91
2023-01-09T04:02:21.501Z,-1.86
2023-01-09T04:03:53.500Z,-1.87
2023-01-09T04:05:25.544Z,-1.86
2023-01-09T04:06:57.753Z,-1.86
2023-01-09T04:08:30.959Z,-1.85
2023-01-09T04:10:03.708Z,-1.83
2023-01-09T04:11:35.769Z,-1.88
2023-01-09T04:13:07.794Z,-1.88
2023-01-09T04:14:39.926Z,-1.89
2023-01-09T04:16:12.056Z,-1.84
2023-01-09T04:17:44.104Z,-1.84
2023-01-09T04:19:16.145Z,-1.81
2023-01-09T04:20:48.963Z,-1.79
2023-01-09T04:22:20.934Z,-1.80
2023-01-09T04:23:52.881Z,-1.79
2023-01-09T04:25:24.995Z,-1.78
2023-01-09T04:26:57.015Z,-1.79
2023-01-09T04:28:29.107Z,-1.83
2023-01-09T04:30:01.095Z,-1.80
2023-01-09T04:31:33.173Z,-1.83
2023-01-09T04:33:05.244Z,-1.84
2023-01-09T04:34:37.257Z,-1.83
2023-01-09T04:36:09.716Z,-1.80
2023-01-09T04:37:41.765Z,-1.82
2023-01-09T04:39:13.762Z,-1.84
2023-01-09T04:40:48.145Z,-1.79
2023-01-09T04:42:20.082Z,-1.81
2023-01-09T04:43:52.180Z,-1.79
2023-01-09T04:45:24.232Z,-1.79
2023-01-09T04:46:57.517Z,-1.77
2023-01-09T04:48:29.672Z,-1.79
2023-01-09T04:50:02.129Z,-1.79
2023-01-09T04:51:34.133Z,-1.78
2023-01-09T04:53:07.230Z,-1.78
2023-01-09T04:54:40.439Z,-1.80
2023-01-09T04:56:12.513Z,-1.86
2023-01-09T04:57:44.609Z,-1.84
2023-01-09T04:59:16.837Z,-1.85
2023-01-09T05:00:48.964Z,-1.82
2023-01-09T05:02:21.053Z,-1.81
2023-01-09T05:03:53.167Z,-1.81
2023-01-09T05:05:25.259Z,-1.83
2023-01-09T05:06:57.319Z,-1.84
2023-01-09T05:08:29.337Z,-1.87
2023-01-09T05:10:01.923Z,-1.89
2023-01-09T05:11:36.695Z,-1.89
2023-01-09T05:13:08.749Z,-1.88
2023-01-09T05:14:40.802Z,-1.89
2023-01-09T05:16:12.936Z,-1.86
2023-01-09T05:17:44.955Z,-1.85
2023-01-09T05:19:16.910Z,-1.85
2023-01-09T05:20:48.949Z,-1.88
2023-01-09T05:22:21.094Z,-1.93
2023-01-09T05:23:53.260Z,-1.96
2023-01-09T05:25:25.239Z,-1.99
2023-01-09T05:26:57.367Z,-1.96
2023-01-09T05:28:29.512Z,-1.94
2023-01-09T05:30:01.669Z,-1.98
2023-01-09T05:31:33.903Z,-1.99
2023-01-09T05:33:06.001Z,-2.00
2023-01-09T05:34:38.060Z,-2.00
2023-01-09T05:36:10.159Z,-2.02
2023-01-09T05:37:42.169Z,-2.04
2023-01-09T05:39:14.267Z,-2.04
2023-01-09T05:40:46.314Z,-2.04
2023-01-09T05:42:18.308Z,-2.06
2023-01-09T05:43:50.358Z,-2.11
2023-01-09T05:45:22.406Z,-2.16
2023-01-09T05:46:54.495Z,-2.19
2023-01-09T05:48:26.727Z,-2.15
2023-01-09T05:49:58.907Z,-2.16
2023-01-09T05:51:32.237Z,-2.17
2023-01-09T05:53:04.307Z,-2.18
2023-01-09T05:54:36.514Z,-2.19
2023-01-09T05:56:09.634Z,-2.21
2023-01-09T05:57:43.370Z,-2.31
2023-01-09T05:59:15.404Z,-2.33
2023-01-09T06:00:50.214Z,-2.35
2023-01-09T06:02:22.406Z,-2.33
2023-01-09T06:03:54.480Z,-2.31
2023-01-09T06:05:26.537Z,-2.32
2023-01-09T06:06:58.577Z,-2.41
2023-01-09T06:08:30.645Z,-2.37
2023-01-09T06:10:02.613Z,-2.37
2023-01-09T06:11:36.376Z,-2.36
2023-01-09T06:13:08.394Z,-2.35
2023-01-09T06:14:40.445Z,-2.34
2023-01-09T06:16:14.229Z,-2.32
2023-01-09T06:19:22.782Z,-2.45
2023-01-09T06:20:54.813Z,-2.43
2023-01-09T06:22:26.834Z,-2.41
2023-01-09T06:23:59.165Z,-2.42
2023-01-09T06:25:31.340Z,-2.42
2023-01-09T06:27:03.513Z,-2.43
2023-01-09T06:28:35.697Z,-2.42
2023-01-09T06:30:08.466Z,-2.37
2023-01-09T06:31:40.493Z,-2.38
2023-01-09T06:33:12.653Z,-2.36
2023-01-09T06:34:45.057Z,-2.32
2023-01-09T06:36:17.345Z,-2.36
2023-01-09T06:37:50.202Z,-2.31
2023-01-09T06:39:22.176Z,-2.32
2023-01-09T06:40:54.220Z,-2.37
2023-01-09T06:42:26.201Z,-2.34
2023-01-09T06:43:58.203Z,-2.34
2023-01-09T06:45:30.322Z,-2.31
2023-01-09T06:47:03.079Z,-2.29
2023-01-09T06:48:35.393Z,-2.24
2023-01-09T06:50:09.551Z,-2.24
2023-01-09T06:51:41.572Z,-2.32
2023-01-09T06:53:13.669Z,-2.30
2023-01-09T06:54:45.674Z,-2.28
2023-01-09T06:56:17.784Z,-2.28
2023-01-09T06:57:49.817Z,-2.26
2023-01-09T06:59:21.831Z,-2.30
2023-01-09T07:00:55.893Z,-2.29
2023-01-09T07:02:27.993Z,-2.23
2023-01-09T07:04:00.098Z,-2.20
2023-01-09T07:05:33.840Z,-2.17
2023-01-09T07:07:05.894Z,-2.18
2023-01-09T07:08:37.909Z,-2.23
2023-01-09T07:10:10.990Z,-2.26
2023-01-09T07:11:43.067Z,-2.31
2023-01-09T07:13:15.079Z,-2.32
2023-01-09T07:14:47.180Z,-2.31
2023-01-09T07:16:19.514Z,-2.30
2023-01-09T07:17:52.378Z,-2.27
2023-01-09T07:19:24.541Z,-2.25
2023-01-09T07:20:56.615Z,-2.24
2023-01-09T07:22:28.780Z,-2.19
2023-01-09T07:24:03.906Z,-2.12
2023-01-09T07:25:35.926Z,-2.10
2023-01-09T07:27:08.036Z,-2.05
2023-01-09T07:28:40.210Z,-2.04
2023-01-09T07:30:12.935Z,-2.02
2023-01-09T07:31:44.954Z,-2.02
2023-01-09T07:33:17.215Z,-2.01
2023-01-09T07:34:50.129Z,-2.01
2023-01-09T07:36:22.170Z,-1.99
2023-01-09T07:37:54.197Z,-1.97
2023-01-09T07:39:26.240Z,-1.91
2023-01-09T07:40:58.494Z,-1.83
2023-01-09T07:42:30.671Z,-1.79
2023-01-09T07:44:05.832Z,-1.72
2023-01-09T07:45:37.853Z,-1.67
2023-01-09T07:47:09.849Z,-1.58
2023-01-09T07:48:41.924Z,-1.52
2023-01-09T07:50:14.013Z,-1.43
2023-01-09T07:51:48.552Z,-1.34
2023-01-09T07:53:20.574Z,-1.26
2023-01-09T07:54:52.578Z,-1.16
2023-01-09T07:58:10.080Z,-0.99
2023-01-09T07:59:42.184Z,-0.92
2023-01-09T08:01:14.579Z,-0.79
2023-01-09T08:02:46.884Z,-0.71
2023-01-09T08:04:21.719Z,-0.60
2023-01-09T08:05:53.853Z,-0.49
2023-01-09T08:07:25.830Z,-0.43
2023-01-09T08:09:00.831Z,-0.32
2023-01-09T08:10:32.970Z,-0.24
2023-01-09T08:12:05.369Z,-0.15
2023-01-09T08:13:37.494Z,-0.10
2023-01-09T08:15:10.010Z,-0.01
2023-01-09T08:16:42.191Z,0.06
2023-01-09T08:18:14.317Z,0.10
2023-01-09T08:19:46.688Z,0.20
2023-01-09T08:21:18.717Z,0.27
2023-01-09T08:22:50.994Z,0.34
2023-01-09T08:24:22.992Z,0.37
2023-01-09T08:25:55.106Z,0.47
2023-01-09T08:27:27.131Z,0.52
2023-01-09T08:28:59.282Z,0.60
2023-01-09T08:30:31.295Z,0.68
2023-01-09T08:32:03.355Z,0.76
2023-01-09T08:33:35.525Z,0.86
2023-01-09T08:35:08.424Z,0.97
2023-01-09T08:36:40.483Z,1.03
2023-01-09T08:38:12.540Z,1.09
2023-01-09T08:39:44.793Z,1.15
2023-01-09T08:41:35.614Z,1.25
2023-01-09T08:43:26.555Z,1.35
2023-01-09T08:45:17.164Z,1.45
2023-01-09T08:47:07.435Z,1.55
2023-01-09T08:48:39.774Z,1.67
2023-01-09T08:50:12.331Z,1.74
2023-01-09T08:51:44.381Z,1.78
2023-01-09T08:53:16.378Z,1.87
2023-01-09T08:54:48.446Z,1.96
2023-01-09T08:56:20.547Z,2.05
2023-01-09T08:57:53.914Z,2.16
2023-01-09T08:59:25.978Z,2.25
2023-01-09T09:01:02.319Z,2.37
2023-01-09T09:02:34.510Z,2.43
2023-01-09T09:04:06.704Z,2.52
2023-01-09T09:05:38.721Z,2.60
2023-01-09T09:07:10.769Z,2.72
2023-01-09T09:08:42.764Z,2.76
2023-01-09T09:10:15.600Z,2.83
2023-01-09T09:11:47.635Z,2.87
2023-01-09T09:13:19.737Z,2.95
2023-01-09T09:15:10.749Z,2.99
2023-01-09T09:16:42.926Z,3.13
2023-01-09T09:18:15.050Z,3.20
2023-01-09T09:19:47.136Z,3.24
2023-01-09T09:21:20.773Z,3.31
2023-01-09T09:22:52.731Z,3.44
2023-01-09T09:24:24.774Z,3.47
2023-01-09T09:25:56.845Z,3.55
2023-01-09T09:27:28.815Z,3.62
2023-01-09T09:29:00.897Z,3.69
2023-01-09T09:30:33.268Z,3.78
2023-01-09T09:32:05.331Z,3.84
2023-01-09T09:33:37.333Z,3.93
2023-01-09T09:35:10.419Z,4.00
2023-01-09T09:36:42.492Z,4.07
2023-01-09T09:38:14.627Z,4.11
2023-01-09T09:39:46.648Z,4.18
2023-01-09T09:41:56.386Z,4.33
2023-01-09T09:44:15.120Z,4.41
2023-01-09T09:46:00.046Z,4.48
2023-01-09T09:47:49.695Z,4.50
2023-01-09T09:49:29.249Z,4.59
2023-01-09T09:51:23.853Z,4.69
2023-01-09T09:53:11.778Z,4.74
2023-01-09T09:54:49.764Z,4.80
2023-01-09T09:56:24.005Z,4.87
2023-01-09T09:57:57.039Z,4.95
2023-01-09T09:59:33.645Z,5.04
2023-01-09T10:03:16.499Z,5.23
2023-01-09T10:04:55.743Z,5.18
2023-01-09T10:06:32.447Z,5.18
2023-01-09T10:08:16.359Z,5.25
2023-01-09T10:09:56.390Z,5.30
2023-01-09T10:11:35.535Z,5.30
2023-01-09T10:13:27.962Z,5.23
2023-01-09T10:15:02.597Z,5.25
2023-01-09T10:17:00.022Z,5.17
2023-01-09T10:18:55.487Z,5.13
2023-01-09T10:20:50.606Z,5.12
2023-01-09T10:22:47.282Z,5.10
2023-01-09T10:24:22.652Z,5.07
2023-01-09T10:26:42.075Z,5.15
2023-01-09T10:28:38.974Z,5.17
2023-01-09T10:30:31.631Z,5.20
2023-01-09T10:32:33.879Z,5.21
2023-01-09T10:34:15.102Z,5.17
2023-01-09T10:36:13.620Z,5.22
2023-01-09T10:37:47.156Z,5.31
2023-01-09T10:39:20.965Z,5.44
2023-01-09T10:41:01.714Z,5.27
2023-01-09T10:42:47.957Z,5.17
2023-01-09T10:44:42.490Z,5.07
2023-01-09T10:46:31.245Z,4.95
2023-01-09T10:48:29.679Z,4.92
2023-01-09T10:50:26.124Z,4.62
2023-01-09T10:52:11.436Z,4.55
2023-01-09T10:53:46.763Z,4.47
2023-01-09T10:55:20.190Z,4.42
2023-01-09T10:56:56.940Z,4.39
2023-01-09T10:58:29.948Z,4.26
2023-01-09T11:00:02.137Z,4.28
2023-01-09T11:01:38.565Z,4.33
2023-01-09T11:03:15.810Z,4.37
2023-01-09T11:06:26.373Z,4.33
2023-01-09T11:08:31.540Z,4.39
2023-01-09T11:10:13.536Z,4.35
2023-01-09T11:11:45.823Z,4.32
2023-01-09T11:13:26.262Z,4.45
2023-01-09T11:15:30.611Z,4.52
2023-01-09T11:17:07.182Z,4.55
2023-01-09T11:18:41.601Z,4.61
2023-01-09T11:20:17.657Z,4.70
2023-01-09T11:21:50.235Z,4.72
2023-01-09T11:23:30.967Z,4.81
2023-01-09T11:25:03.893Z,4.87
2023-01-09T11:26:35.967Z,4.99
2023-01-09T11:28:10.258Z,5.12
2023-01-09T11:29:43.659Z,5.22
2023-01-09T11:31:21.807Z,5.36
2023-01-09T11:32:58.086Z,5.47
2023-01-09T11:34:34.569Z,5.56
2023-01-09T11:36:11.568Z,5.68
2023-01-09T11:37:44.682Z,5.63
2023-01-09T11:39:38.306Z,5.75
2023-01-09T11:41:20.746Z,5.83
2023-01-09T11:43:31.074Z,5.97
2023-01-09T11:45:03.228Z,6.00
2023-01-09T11:46:39.879Z,6.08
2023-01-09T11:48:34.600Z,6.17
2023-01-09T11:50:24.537Z,6.31
2023-01-09T11:52:15.882Z,6.43
2023-01-09T11:53:56.584Z,6.52
2023-01-09T11:55:34.867Z,6.61
2023-01-09T11:57:14.231Z,6.67
2023-01-09T11:58:46.342Z,6.62
2023-01-09T12:00:30.874Z,6.73
2023-01-09T12:02:39.776Z,6.76
2023-01-09T12:04:23.959Z,6.82
2023-01-09T12:06:06.077Z,6.88
2023-01-09T12:08:07.121Z,6.94
2023-01-09T12:09:41.959Z,6.82
2023-01-09T12:11:13.984Z,6.82
2023-01-09T12:13:15.333Z,6.94
2023-01-09T12:15:04.116Z,6.92
2023-01-09T12:16:48.380Z,6.94
2023-01-09T12:18:38.060Z,6.96
2023-01-09T12:20:28.220Z,6.99
2023-01-09T12:22:25.282Z,7.00
2023-01-09T12:24:34.297Z,7.07
2023-01-09T12:26:23.539Z,7.02
2023-01-09T12:28:19.590Z,6.97
2023-01-09T12:30:16.868Z,6.85
2023-01-09T12:32:29.847Z,6.76
2023-01-09T12:34:20.250Z,6.52
2023-01-09T12:36:28.768Z,6.42
2023-01-09T12:38:05.619Z,6.26
2023-01-09T12:40:11.541Z,6.33
2023-01-09T12:42:25.384Z,6.30
2023-01-09T12:44:34.329Z,6.17
2023-01-09T12:46:17.044Z,6.23
2023-01-09T12:47:50.538Z,6.19
2023-01-09T12:49:38.333Z,6.21
2023-01-09T12:51:28.489Z,6.12
2023-01-09T12:53:14.614Z,6.11
2023-01-09T12:54:51.981Z,6.04
2023-01-09T12:56:34.600Z,6.03
2023-01-09T12:58:23.259Z,6.18
2023-01-09T13:00:01.889Z,6.20
2023-01-09T13:01:40.493Z,6.11
2023-01-09T13:03:27.363Z,6.20
2023-01-09T13:05:33.709Z,6.33
2023-01-09T13:07:12.411Z,6.21
2023-01-09T13:09:26.937Z,6.09
2023-01-09T13:11:18.957Z,6.08
2023-01-09T13:12:52.989Z,5.90
2023-01-09T13:14:48.719Z,5.80
2023-01-09T13:16:34.043Z,5.74
2023-01-09T13:18:28.098Z,5.69
2023-01-09T13:20:00.327Z,5.62
2023-01-09T13:21:33.143Z,5.61
2023-01-09T13:23:06.182Z,5.63
2023-01-09T13:24:38.245Z,5.54
2023-01-09T13:26:16.243Z,5.46
2023-01-09T13:27:58.203Z,5.32
2023-01-09T13:29:33.648Z,4.93
2023-01-09T13:31:21.494Z,4.81
2023-01-09T13:33:21.983Z,4.61
2023-01-09T13:34:57.626Z,4.28
2023-01-09T13:36:33.403Z,4.11
2023-01-09T13:38:05.455Z,3.96
2023-01-09T13:39:37.629Z,3.96
2023-01-09T13:41:36.155Z,3.91
2023-01-09T13:43:10.195Z,3.89
2023-01-09T13:44:42.866Z,3.95
2023-01-09T13:46:15.071Z,3.94
2023-01-09T13:47:47.423Z,3.78
2023-01-09T13:49:47.290Z,3.83
2023-01-09T13:51:58.462Z,3.64
2023-01-09T13:53:32.338Z,3.27
2023-01-09T13:55:16.655Z,3.33
2023-01-09T13:57:19.088Z,3.18
2023-01-09T13:58:59.303Z,3.05
2023-01-09T14:00:38.086Z,3.00
2023-01-09T14:02:35.127Z,2.95
2023-01-09T14:04:10.329Z,2.86
2023-01-09T14:05:42.382Z,2.78
2023-01-09T14:07:20.341Z,2.83
2023-01-09T14:09:18.592Z,2.84
2023-01-09T14:11:00.525Z,2.60
2023-01-09T14:12:40.850Z,2.59
2023-01-09T14:14:23.826Z,2.56
2023-01-09T14:16:04.799Z,2.64
2023-01-09T14:17:38.206Z,2.57
2023-01-09T14:19:16.092Z,2.58
2023-01-09T14:21:11.851Z,2.60
2023-01-09T14:22:55.865Z,2.54
2023-01-09T14:24:52.884Z,2.69
2023-01-09T14:26:41.869Z,2.62
2023-01-09T14:28:23.791Z,2.52
2023-01-09T14:30:27.833Z,2.54
2023-01-09T14:32:26.647Z,2.62
2023-01-09T14:34:36.092Z,2.67
2023-01-09T14:36:16.042Z,2.67
2023-01-09T14:37:59.906Z,2.66
2023-01-09T14:39:33.064Z,2.61
2023-01-09T14:41:49.775Z,2.55
2023-01-09T14:43:48.954Z,2.48
2023-01-09T14:45:26.364Z,2.49
2023-01-09T14:47:19.230Z,2.46
2023-01-09T14:49:26.088Z,2.39
2023-01-09T14:51:00.011Z,2.35
2023-01-09T14:52:39.193Z,2.37
2023-01-09T14:54:33.525Z,2.42
2023-01-09T14:56:08.746Z,2.36
2023-01-09T14:57:40.723Z,2.36
2023-01-09T14:59:14.831Z,2.37
2023-01-09T15:00:59.254Z,2.41
2023-01-09T15:02:34.712Z,2.43
2023-01-09T15:04:19.126Z,2.43
2023-01-09T15:05:52.999Z,2.41
2023-01-09T15:07:34.527Z,2.41
2023-01-09T15:09:09.631Z,2.45
2023-01-09T15:10:44.495Z,2.47
2023-01-09T15:12:20.619Z,2.46
2023-01-09T15:13:53.703Z,2.49
2023-01-09T15:15:26.181Z,2.46
2023-01-09T15:16:58.602Z,2.45
2023-01-09T15:18:34.242Z,2.49
2023-01-09T15:20:08.029Z,2.52
2023-01-09T15:21:40.105Z,2.52
2023-01-09T15:23:23.280Z,2.59
2023-01-09T15:24:55.442Z,2.52
2023-01-09T15:26:31.322Z,2.54
2023-01-09T15:28:35.223Z,2.55
2023-01-09T15:30:17.190Z,2.55
2023-01-09T15:31:54.526Z,2.52
2023-01-09T15:33:26.910Z,2.52
2023-01-09T15:35:09.714Z,2.51
2023-01-09T15:36:42.009Z,2.57
2023-01-09T15:38:33.482Z,2.63
2023-01-09T15:40:10.047Z,2.61
2023-01-09T15:42:00.467Z,2.59
2023-01-09T15:43:33.481Z,2.60
2023-01-09T15:45:06.196Z,2.61
2023-01-09T15:46:38.242Z,2.59
2023-01-09T15:48:18.891Z,2.62
2023-01-09T15:49:51.516Z,2.58
2023-01-09T15:51:24.627Z,2.58
2023-01-09T15:52:57.478Z,2.60
2023-01-09T15:54:31.725Z,2.62
2023-01-09T15:56:08.323Z,2.62
2023-01-09T15:57:51.647Z,2.62
2023-01-09T15:59:29.093Z,2.62
2023-01-09T16:01:27.534Z,2.59
2023-01-09T16:03:12.568Z,2.57
2023-01-09T16:04:44.711Z,2.54
2023-01-09T16:06:22.586Z,2.56
2023-01-09T16:07:54.685Z,2.55
2023-01-09T16:09:29.913Z,2.59
2023-01-09T16:11:04.559Z,2.58
2023-01-09T16:12:36.599Z,2.55
2023-01-09T16:14:27.671Z,2.59
2023-01-09T16:16:00.558Z,2.53
2023-01-09T16:17:34.108Z,2.51
2023-01-09T16:19:06.477Z,2.55
2023-01-09T16:20:38.550Z,2.50
2023-01-09T16:22:37.277Z,2.55
2023-01-09T16:24:15.483Z,2.54
2023-01-09T16:25:47.451Z,2.49
2023-01-09T16:27:27.377Z,2.52
2023-01-09T16:29:38.620Z,2.50
2023-01-09T16:31:25.331Z,2.52
2023-01-09T16:32:57.508Z,2.45
2023-01-09T16:34:30.158Z,2.45
2023-01-09T16:36:05.357Z,2.42
2023-01-09T16:37:37.786Z,2.36
2023-01-09T16:39:19.353Z,2.37
2023-01-09T16:41:23.617Z,2.33
2023-01-09T16:43:01.137Z,2.26
2023-01-09T16:44:33.357Z,2.26
2023-01-09T16:46:05.573Z,2.29
2023-01-09T16:47:37.917Z,2.29
2023-01-09T16:49:23.759Z,2.36
2023-01-09T16:50:55.849Z,2.29
2023-01-09T16:52:27.869Z,2.33
2023-01-09T16:53:59.909Z,2.33
2023-01-09T16:55:32.013Z,2.36
2023-01-09T16:57:04.115Z,2.38
2023-01-09T16:58:36.527Z,2.38
2023-01-09T17:00:15.988Z,2.34
2023-01-09T17:01:48.584Z,2.22
2023-01-09T17:03:21.018Z,2.23
2023-01-09T17:04:55.661Z,2.29
2023-01-09T17:06:28.914Z,2.28
2023-01-09T17:08:00.865Z,2.32
2023-01-09T17:09:33.082Z,2.30
2023-01-09T17:11:05.641Z,2.32
2023-01-09T17:12:38.901Z,2.33
2023-01-09T17:14:14.373Z,2.40
2023-01-09T17:15:46.719Z,2.42
2023-01-09T17:17:20.381Z,2.46
2023-01-09T17:18:52.492Z,2.50
2023-01-09T17:21:57.251Z,2.46
2023-01-09T17:23:29.404Z,2.50
2023-01-09T17:25:19.867Z,2.51
2023-01-09T17:27:10.721Z,2.51
2023-01-09T17:28:52.078Z,2.52
2023-01-09T17:30:24.240Z,2.47
2023-01-09T17:31:57.612Z,2.48
2023-01-09T17:33:30.060Z,2.43
2023-01-09T17:35:02.070Z,2.43
2023-01-09T17:36:35.321Z,2.45
2023-01-09T17:38:09.805Z,2.42
2023-01-09T17:39:42.212Z,2.41
2023-01-09T17:41:14.415Z,2.41
2023-01-09T17:42:46.451Z,2.37
2023-01-09T17:44:18.546Z,2.37
2023-01-09T17:45:51.121Z,2.38
2023-01-09T17:47:23.405Z,2.37
2023-01-09T17:48:55.690Z,2.39
2023-01-09T17:50:34.119Z,2.39
2023-01-09T17:52:07.273Z,2.41
2023-01-09T17:53:39.290Z,2.45
2023-01-09T17:55:11.484Z,2.39
2023-01-09T17:56:46.015Z,2.43
2023-01-09T17:58:30.510Z,2.44
2023-01-09T18:00:02.822Z,2.38
2023-01-09T18:01:34.844Z,2.37
2023-01-09T18:03:08.249Z,2.36
2023-01-09T18:04:40.264Z,2.35
2023-01-09T18:06:13.207Z,2.35
2023-01-09T18:07:45.286Z,2.31
2023-01-09T18:09:18.313Z,2.35
2023-01-09T18:10:50.388Z,2.33
2023-01-09T18:12:22.505Z,2.37
2023-01-09T18:13:57.041Z,2.42
2023-01-09T18:15:29.094Z,2.41
2023-01-09T18:17:02.762Z,2.38
2023-01-09T18:18:35.824Z,2.37
2023-01-09T18:20:08.703Z,2.33
2023-01-09T18:21:40.821Z,2.31
2023-01-09T18:23:13.184Z,2.27
2023-01-09T18:26:21.590Z,2.28
2023-01-09T18:27:53.687Z,2.20
2023-01-09T18:29:25.807Z,2.21
2023-01-09T18:30:57.954Z,2.20
2023-01-09T18:32:29.955Z,2.19
2023-01-09T18:34:07.075Z,2.19
2023-01-09T18:35:39.494Z,2.22
2023-01-09T18:37:11.625Z,2.23
2023-01-09T18:38:43.686Z,2.19
2023-01-09T18:40:15.848Z,2.21
2023-01-09T18:41:48.034Z,2.17
2023-01-09T18:43:20.652Z,2.15
2023-01-09T18:44:52.666Z,2.16
2023-01-09T18:46:25.554Z,2.17
2023-01-09T18:47:57.894Z,2.14
2023-01-09T18:49:29.975Z,2.12
2023-01-09T18:51:03.766Z,2.12
2023-01-09T18:52:35.812Z,2.14
2023-01-09T18:54:12.051Z,2.11
2023-01-09T18:55:44.127Z,2.13
2023-01-09T18:57:16.133Z,2.15
2023-01-09T18:58:49.066Z,2.16
2023-01-09T19:00:21.584Z,2.16
2023-01-09T19:01:53.561Z,2.18
2023-01-09T19:03:25.611Z,2.15
2023-01-09T19:04:57.574Z,2.12
2023-01-09T19:06:30.864Z,2.16
2023-01-09T19:08:02.887Z,2.20
2023-01-09T19:09:36.166Z,2.18
2023-01-09T19:11:08.265Z,2.14
2023-01-09T19:12:40.583Z,2.20
2023-01-09T19:14:12.807Z,2.19
2023-01-09T19:15:44.855Z,2.10
2023-01-09T19:17:17.048Z,2.11
2023-01-09T19:18:49.367Z,2.10
2023-01-09T19:20:21.467Z,2.09
2023-01-09T19:21:53.687Z,2.06
2023-01-09T19:23:25.814Z,2.09
2023-01-09T19:24:57.850Z,2.07
2023-01-09T19:26:31.315Z,2.09
2023-01-09T19:28:03.607Z,2.12
2023-01-09T19:29:36.799Z,2.06
2023-01-09T19:31:09.087Z,2.03
2023-01-09T19:32:41.181Z,1.98
2023-01-09T19:34:13.868Z,1.98
2023-01-09T19:35:49.183Z,2.00
2023-01-09T19:37:21.287Z,1.97
2023-01-09T19:38:57.845Z,2.03
2023-01-09T19:40:29.897Z,1.98
2023-01-09T19:42:01.991Z,1.96
2023-01-09T19:43:34.089Z,1.95
2023-01-09T19:45:06.641Z,1.96
2023-01-09T19:46:38.660Z,1.95
2023-01-09T19:48:10.676Z,1.95
2023-01-09T19:49:42.716Z,1.91
2023-01-09T19:51:16.165Z,1.95
2023-01-09T19:52:48.268Z,1.97
2023-01-09T19:54:20.325Z,1.97
2023-01-09T19:55:52.335Z,1.95
2023-01-09T19:57:24.431Z,1.93
2023-01-09T19:58:59.031Z,1.91
2023-01-09T20:00:31.190Z,1.89
2023-01-09T20:02:03.742Z,1.93
2023-01-09T20:03:35.962Z,1.92
2023-01-09T20:05:09.080Z,1.95
2023-01-09T20:06:44.156Z,1.99
2023-01-09T20:08:18.858Z,1.97
2023-01-09T20:09:50.958Z,1.98
2023-01-09T20:11:24.975Z,1.99
2023-01-09T20:12:57.049Z,1.94
2023-01-09T20:14:30.083Z,1.92
2023-01-09T20:16:03.705Z,1.87
2023-01-09T20:17:35.788Z,1.93
2023-01-09T20:19:09.035Z,1.94
2023-01-09T20:20:49.082Z,2.00
2023-01-09T20:22:21.230Z,1.96
2023-01-09T20:23:55.818Z,2.03
2023-01-09T20:25:27.863Z,2.01
2023-01-09T20:27:00.976Z,2.03
2023-01-09T20:28:33.124Z,2.00
2023-01-09T20:30:05.927Z,2.00
2023-01-09T20:31:38.022Z,2.00
2023-01-09T20:33:10.045Z,2.00
2023-01-09T20:34:44.168Z,2.00
2023-01-09T20:36:16.310Z,1.98
2023-01-09T20:37:48.256Z,1.94
2023-01-09T20:39:20.602Z,1.92
2023-01-09T20:40:52.686Z,1.91
2023-01-09T20:42:24.687Z,1.88
2023-01-09T20:44:06.152Z,1.96
2023-01-09T20:45:38.757Z,1.92
2023-01-09T20:47:10.826Z,1.93
2023-01-09T20:48:43.635Z,1.95
2023-01-09T20:50:16.344Z,1.94
2023-01-09T20:51:52.751Z,1.92
2023-01-09T20:53:24.808Z,1.87
2023-01-09T20:54:56.909Z,1.85
2023-01-09T20:56:30.849Z,1.89
2023-01-09T20:58:02.973Z,1.84
2023-01-09T20:59:35.107Z,1.84
2023-01-09T21:01:14.178Z,1.90
2023-01-09T21:02:46.242Z,1.80
2023-01-09T21:04:18.711Z,1.82
2023-01-09T21:05:50.849Z,1.83
2023-01-09T21:07:24.987Z,1.87
2023-01-09T21:08:57.003Z,1.85
2023-01-09T21:10:28.991Z,1.88
2023-01-09T21:12:01.032Z,1.86
2023-01-09T21:13:33.192Z,1.87
2023-01-09T21:15:08.797Z,1.93
2023-01-09T21:16:40.965Z,1.92
2023-01-09T21:18:13.077Z,1.92
2023-01-09T21:19:45.325Z,1.94
2023-01-09T21:21:19.448Z,1.99
2023-01-09T21:22:51.742Z,1.97
2023-01-09T21:24:23.856Z,1.99
2023-01-09T21:25:55.929Z,1.97
2023-01-09T21:27:37.112Z,1.99
2023-01-09T21:29:13.293Z,2.02
2023-01-09T21:30:49.820Z,2.01
2023-01-09T21:32:22.375Z,2.01